Time;durP1;ratioP1;P1;durP2;ratioP2;P2;SDS_P1;SDS_P2;PMS_P1;PMS_P2;Temp;Humidity;BMP_temperature;BMP_pressure;BME280_temperature;BME280_humidity;BME280_pressure;Samples;Min_cycle;Max_cycle;Signal;HPM_P1;HPM_P2
2021/04/25 00:02:58;;;;;;;;;;;6.10;99.90;;;;;;10423639;28;19976;-71
2021/04/25 00:07:59;;;;;;;;;;;6.00;99.90;;;;;;10410562;28;19957;-71
2021/04/25 00:13:01;;;;;;;;;;;6.00;99.90;;;;;;10424982;28;20028;-71
2021/04/25 00:18:02;;;;;;;;;;;5.90;99.90;;;;;;10422232;28;20011;-71
2021/04/25 00:23:04;;;;;;;;;;;5.80;99.90;;;;;;10435556;28;19929;-71
2021/04/25 00:28:05;;;;;;;;;;;5.70;99.90;;;;;;10412738;28;20401;-71
2021/04/25 00:33:06;;;;;;;;;;;5.60;99.90;;;;;;10408265;28;20402;-71
2021/04/25 00:38:08;;;;;;;;;;;5.50;99.90;;;;;;10414390;28;20019;-71
2021/04/25 00:43:09;;;;;;;;;;;5.40;99.90;;;;;;10407306;28;20433;-71
2021/04/25 00:48:11;;;;;;;;;;;5.30;99.90;;;;;;10408062;28;19983;-71
2021/04/25 00:53:12;;;;;;;;;;;5.20;99.90;;;;;;10407739;28;20341;-71
2021/04/25 00:58:14;;;;;;;;;;;5.10;99.90;;;;;;10408026;28;19972;-71
2021/04/25 01:03:19;;;;;;;;;;;5.10;99.90;;;;;;10407163;28;20376;-71
2021/04/25 01:08:21;;;;;;;;;;;5.00;99.90;;;;;;10417257;28;20031;-71
2021/04/25 01:13:23;;;;;;;;;;;4.90;99.90;;;;;;10438104;28;20012;-71
2021/04/25 01:18:24;;;;;;;;;;;4.80;99.90;;;;;;10406639;28;19925;-72
2021/04/25 01:23:26;;;;;;;;;;;4.80;99.90;;;;;;10437439;28;20298;-71
2021/04/25 01:28:27;;;;;;;;;;;4.70;99.90;;;;;;10395993;28;20024;-72
2021/04/25 01:33:28;;;;;;;;;;;4.40;99.90;;;;;;10405651;28;20008;-71
2021/04/25 01:38:30;;;;;;;;;;;4.30;99.90;;;;;;10405706;28;20481;-71
2021/04/25 01:43:31;;;;;;;;;;;4.40;99.90;;;;;;10404982;28;20349;-72
2021/04/25 01:48:32;;;;;;;;;;;4.40;99.90;;;;;;10407750;28;19929;-72
2021/04/25 01:53:34;;;;;;;;;;;4.30;99.90;;;;;;10405694;28;19925;-71
2021/04/25 01:58:35;;;;;;;;;;;4.30;99.90;;;;;;10406057;28;19972;-71
2021/04/25 02:03:38;;;;;;;;;;;4.30;99.90;;;;;;10408699;28;19925;-71
2021/04/25 02:08:39;;;;;;;;;;;4.30;99.90;;;;;;10412579;28;20369;-71
2021/04/25 02:13:40;;;;;;;;;;;4.20;99.90;;;;;;10413370;28;20016;-73
2021/04/25 02:18:42;;;;;;;;;;;4.10;99.90;;;;;;10413205;28;20020;-72
2021/04/25 02:23:44;;;;;;;;;;;3.80;99.90;;;;;;10413152;28;19929;-72
2021/04/25 02:28:45;;;;;;;;;;;3.80;99.90;;;;;;10408961;28;20374;-72
2021/04/25 02:33:46;;;;;;;;;;;4.00;99.90;;;;;;10413385;28;19925;-72
2021/04/25 02:38:53;;;;;;;;;;;3.90;99.90;;;;;;10412840;28;20266;-72
2021/04/25 02:43:54;;;;;;;;;;;3.70;99.90;;;;;;10411848;28;20465;-72
2021/04/25 02:48:56;;;;;;;;;;;3.60;99.90;;;;;;10412694;28;20008;-71
2021/04/25 02:53:57;;;;;;;;;;;3.50;99.90;;;;;;10412933;28;19956;-72
2021/04/25 02:58:58;;;;;;;;;;;3.40;99.90;;;;;;10412504;28;20355;-71
2021/04/25 03:04:00;;;;;;;;;;;3.40;99.90;;;;;;10408478;28;19929;-72
2021/04/25 03:09:01;;;;;;;;;;;3.30;99.90;;;;;;10407094;28;19925;-71
2021/04/25 03:14:02;;;;;;;;;;;3.20;99.90;;;;;;10404714;28;20031;-71
2021/04/25 03:19:04;;;;;;;;;;;3.10;99.90;;;;;;10405249;28;19929;-72
2021/04/25 03:24:05;;;;;;;;;;;3.10;99.90;;;;;;10403754;28;19975;-72
2021/04/25 03:29:07;;;;;;;;;;;3.00;99.90;;;;;;10404004;28;19925;-72
2021/04/25 03:34:08;;;;;;;;;;;2.90;99.90;;;;;;10404511;28;19929;-72
2021/04/25 03:39:11;;;;;;;;;;;2.90;99.90;;;;;;10404674;28;19971;-72
2021/04/25 03:44:14;;;;;;;;;;;2.80;99.90;;;;;;10404369;28;20012;-72
2021/04/25 03:49:20;;;;;;;;;;;2.80;99.90;;;;;;10404472;28;19925;-71
2021/04/25 03:54:22;;;;;;;;;;;2.70;99.90;;;;;;10406968;28;19976;-71
2021/04/25 03:59:26;;;;;;;;;;;2.70;99.90;;;;;;10412234;28;20395;-71
2021/04/25 04:04:27;;;;;;;;;;;2.60;99.90;;;;;;10411843;28;19929;-71
2021/04/25 04:09:29;;;;;;;;;;;2.60;99.90;;;;;;10411100;28;20011;-71
2021/04/25 04:14:30;;;;;;;;;;;2.50;99.90;;;;;;10411679;28;19983;-71
2021/04/25 04:19:32;;;;;;;;;;;2.40;99.90;;;;;;10411257;28;19959;-72
2021/04/25 04:24:33;;;;;;;;;;;2.40;99.90;;;;;;10411289;28;19977;-71
2021/04/25 04:29:34;;;;;;;;;;;2.50;99.90;;;;;;10410930;28;19929;-71
2021/04/25 04:34:37;;;;;;;;;;;2.50;99.90;;;;;;10410876;28;19968;-71
2021/04/25 04:39:38;;;;;;;;;;;2.50;99.90;;;;;;10410308;28;19968;-72
2021/04/25 04:44:39;;;;;;;;;;;2.50;99.90;;;;;;10410400;28;20400;-72
2021/04/25 04:49:40;;;;;;;;;;;2.60;99.90;;;;;;10410126;28;20015;-71
2021/04/25 04:54:42;;;;;;;;;;;3.30;99.90;;;;;;10410027;28;19971;-72
2021/04/25 04:59:43;;;;;;;;;;;3.80;99.90;;;;;;10410237;28;19960;-72
2021/04/25 05:04:44;;;;;;;;;;;4.00;99.90;;;;;;10409085;28;20016;-72
2021/04/25 05:09:46;;;;;;;;;;;4.60;99.90;;;;;;10409112;28;20445;-72
2021/04/25 05:14:47;;;;;;;;;;;4.70;99.90;;;;;;10424712;28;20004;-71
2021/04/25 05:19:48;;;;;;;;;;;4.40;99.90;;;;;;10408994;28;19968;-72
2021/04/25 05:24:50;;;;;;;;;;;4.20;99.90;;;;;;10408967;28;19924;-72
2021/04/25 05:29:51;;;;;;;;;;;4.20;99.90;;;;;;10408895;28;19999;-72
2021/04/25 05:34:53;;;;;;;;;;;4.20;99.90;;;;;;10408362;28;20347;-72
2021/04/25 05:39:54;;;;;;;;;;;4.20;99.90;;;;;;10407752;28;20369;-73
2021/04/25 05:44:55;;;;;;;;;;;4.20;99.90;;;;;;10408268;28;20448;-72
2021/04/25 05:49:56;;;;;;;;;;;4.20;99.90;;;;;;10407478;28;20071;-72
2021/04/25 05:54:58;;;;;;;;;;;4.30;99.90;;;;;;10407664;28;20456;-72
2021/04/25 05:59:59;;;;;;;;;;;4.40;99.90;;;;;;10407697;28;19983;-72
2021/04/25 06:05:01;;;;;;;;;;;4.50;99.90;;;;;;10407097;28;20449;-73
2021/04/25 06:10:03;;;;;;;;;;;4.70;99.90;;;;;;10405590;28;19929;-73
2021/04/25 06:15:05;;;;;;;;;;;4.80;99.90;;;;;;10407362;28;20024;-72
2021/04/25 06:20:07;;;;;;;;;;;5.00;99.90;;;;;;10406365;28;20071;-72
2021/04/25 06:25:09;;;;;;;;;;;5.10;99.90;;;;;;10406900;28;20032;-73
2021/04/25 06:30:14;;;;;;;;;;;5.30;99.90;;;;;;10406264;28;20355;-73
2021/04/25 06:35:15;;;;;;;;;;;5.30;99.90;;;;;;10406186;28;20008;-73
2021/04/25 06:40:17;;;;;;;;;;;5.30;99.90;;;;;;10405733;28;19936;-73
2021/04/25 06:45:19;;;;;;;;;;;5.50;99.90;;;;;;10404195;28;19987;-73
2021/04/25 06:50:21;;;;;;;;;;;5.40;99.90;;;;;;10405626;28;19944;-73
2021/04/25 06:55:23;;;;;;;;;;;5.50;99.90;;;;;;10405273;28;20011;-73
2021/04/25 07:00:25;;;;;;;;;;;5.60;97.60;;;;;;10404803;28;20007;-72
2021/04/25 07:05:27;;;;;;;;;;;5.80;98.00;;;;;;10405463;28;20293;-73
2021/04/25 07:10:28;;;;;;;;;;;6.00;97.10;;;;;;10405141;28;20039;-73
2021/04/25 07:15:29;;;;;;;;;;;6.30;96.90;;;;;;10405325;28;19968;-72
2021/04/25 07:20:30;;;;;;;;;;;6.40;96.00;;;;;;10404648;28;20077;-72
2021/04/25 07:25:32;;;;;;;;;;;6.40;94.40;;;;;;10404436;28;20382;-72
2021/04/25 07:30:33;;;;;;;;;;;6.40;95.40;;;;;;10409209;28;20059;-72
2021/04/25 07:35:34;;;;;;;;;;;6.50;95.50;;;;;;10413531;28;19971;-72
2021/04/25 07:40:38;;;;;;;;;;;7.10;92.50;;;;;;10412329;28;20361;-72
2021/04/25 07:45:39;;;;;;;;;;;7.80;90.70;;;;;;10413304;28;19932;-73
2021/04/25 07:50:40;;;;;;;;;;;8.70;84.80;;;;;;10412557;28;20217;-73
2021/04/25 07:55:42;;;;;;;;;;;9.20;77.80;;;;;;10414122;28;20015;-73
2021/04/25 08:00:43;;;;;;;;;;;9.30;75.20;;;;;;10435717;28;20034;-73
2021/04/25 08:05:45;;;;;;;;;;;9.70;72.10;;;;;;10433584;28;20016;-73
2021/04/25 08:10:46;;;;;;;;;;;10.10;65.00;;;;;;10443895;28;20020;-73
2021/04/25 08:15:47;;;;;;;;;;;10.30;64.60;;;;;;10441326;28;19925;-74
2021/04/25 08:20:48;;;;;;;;;;;10.70;64.40;;;;;;10442590;28;19947;-74
2021/04/25 08:25:50;;;;;;;;;;;11.40;60.30;;;;;;10408177;28;19925;-74
2021/04/25 08:30:52;;;;;;;;;;;11.30;59.30;;;;;;10427779;28;19933;-73
2021/04/25 08:35:53;;;;;;;;;;;11.50;57.80;;;;;;10441448;28;20023;-74
2021/04/25 08:40:56;;;;;;;;;;;11.80;56.20;;;;;;10448047;28;19929;-74
2021/04/25 08:45:58;;;;;;;;;;;11.60;56.80;;;;;;10413415;28;19976;-74
2021/04/25 08:51:00;;;;;;;;;;;12.00;54.70;;;;;;10408345;28;19925;-74
2021/04/25 08:56:01;;;;;;;;;;;11.80;55.90;;;;;;10425676;28;19965;-74
2021/04/25 09:01:03;;;;;;;;;;;11.90;53.50;;;;;;10428697;28;20024;-74
2021/04/25 09:06:07;;;;;;;;;;;11.40;54.40;;;;;;10407542;28;19929;-73
2021/04/25 09:11:22;;;;;;;;;;;11.80;53.90;;;;;;10407404;28;19960;-74
2021/04/25 09:16:26;;;;;;;;;;;11.70;54.70;;;;;;10408423;28;20015;-72
2021/04/25 09:21:27;;;;;;;;;;;11.90;53.70;;;;;;10406459;28;20691;-73
2021/04/25 09:26:40;;;;;;;;;;;11.60;53.30;;;;;;10407845;28;20372;-73
2021/04/25 09:31:41;;;;;;;;;;;11.70;52.50;;;;;;10407447;28;20004;-73
2021/04/25 09:36:43;;;;;;;;;;;11.90;52.00;;;;;;10407434;28;19931;-73
2021/04/25 09:41:45;;;;;;;;;;;12.10;52.30;;;;;;10406240;28;20453;-69
2021/04/25 09:46:54;;;;;;;;;;;12.30;53.00;;;;;;10407053;28;19963;-69
2021/04/25 09:51:56;;;;;;;;;;;12.80;50.70;;;;;;10404684;28;19929;-69
2021/04/25 09:56:58;;;;;;;;;;;12.50;49.70;;;;;;10405922;28;19936;-68
2021/04/25 10:02:06;;;;;;;;;;;12.40;51.10;;;;;;10405577;28;20387;-68
2021/04/25 10:07:10;;;;;;;;;;;12.60;50.70;;;;;;10405931;28;20350;-68
2021/04/25 10:12:13;;;;;;;;;;;12.80;50.90;;;;;;10405094;28;20136;-68
2021/04/25 10:17:14;;;;;;;;;;;13.10;48.60;;;;;;10407003;28;20007;-69
2021/04/25 10:22:18;;;;;;;;;;;13.10;48.50;;;;;;10405445;28;19925;-68
2021/04/25 10:27:24;;;;;;;;;;;12.70;48.70;;;;;;10406039;28;19959;-68
2021/04/25 10:32:25;;;;;;;;;;;12.00;49.90;;;;;;10403930;28;20016;-68
2021/04/25 10:37:37;;;;;;;;;;;12.30;50.70;;;;;;10405910;28;19941;-68
2021/04/25 10:42:38;;;;;;;;;;;12.50;50.30;;;;;;10405867;28;20016;-68
2021/04/25 10:47:40;;;;;;;;;;;12.60;48.20;;;;;;10414200;28;20016;-69
2021/04/25 10:52:43;;;;;;;;;;;12.40;49.30;;;;;;10445086;28;19925;-68
2021/04/25 10:57:54;;;;;;;;;;;12.20;49.80;;;;;;10404662;28;20381;-69
2021/04/25 11:02:56;;;;;;;;;;;12.00;49.60;;;;;;10403892;28;20377;-68
2021/04/25 11:07:57;;;;;;;;;;;12.40;49.40;;;;;;10403338;28;19975;-69
2021/04/25 11:12:58;;;;;;;;;;;12.60;49.80;;;;;;10404225;28;20022;-68
2021/04/25 11:17:59;;;;;;;;;;;12.90;51.00;;;;;;10403586;28;20019;-68
2021/04/25 11:23:01;;;;;;;;;;;12.90;49.80;;;;;;10403286;28;19995;-68
2021/04/25 11:28:02;;;;;;;;;;;13.00;48.80;;;;;;10402865;28;19975;-68
2021/04/25 11:33:22;;;;;;;;;;;13.00;49.10;;;;;;10403230;28;19925;-68
2021/04/25 11:38:24;;;;;;;;;;;13.10;48.30;;;;;;10403073;28;19933;-69
2021/04/25 11:43:25;;;;;;;;;;;13.00;49.00;;;;;;10403336;28;19925;-68
2021/04/25 11:48:27;;;;;;;;;;;13.00;48.90;;;;;;10386940;28;20302;-68
2021/04/25 11:53:31;;;;;;;;;;;12.80;47.40;;;;;;10383063;28;19940;-68
2021/04/25 11:58:33;;;;;;;;;;;12.80;47.30;;;;;;10371501;28;19984;-68
2021/04/25 12:03:46;;;;;;;;;;;12.90;48.50;;;;;;10362717;28;19936;-68
2021/04/25 12:08:51;;;;;;;;;;;13.30;47.00;;;;;;10362132;28;19973;-68
2021/04/25 12:13:53;;;;;;;;;;;13.70;46.60;;;;;;10362306;28;19925;-68
2021/04/25 12:18:55;;;;;;;;;;;13.90;48.10;;;;;;10374373;28;19983;-68
2021/04/25 12:23:58;;;;;;;;;;;13.80;46.50;;;;;;10410392;28;20008;-68
2021/04/25 12:28:59;;;;;;;;;;;13.70;46.10;;;;;;10409324;28;20364;-68
2021/04/25 12:34:01;;;;;;;;;;;13.80;46.00;;;;;;10408456;28;20348;-68
2021/04/25 12:39:04;;;;;;;;;;;13.90;45.70;;;;;;10409557;28;19925;-68
2021/04/25 12:44:05;;;;;;;;;;;13.80;45.10;;;;;;10409043;28;19969;-69
2021/04/25 12:49:08;;;;;;;;;;;14.10;45.90;;;;;;10408317;28;20012;-68
2021/04/25 12:54:11;;;;;;;;;;;14.10;44.90;;;;;;10408958;28;19931;-69
2021/04/25 12:59:14;;;;;;;;;;;14.10;45.20;;;;;;10408262;28;19947;-69
2021/04/25 13:04:34;;;;;;;;;;;14.10;44.40;;;;;;10408301;28;19929;-69
2021/04/25 13:09:35;;;;;;;;;;;14.20;45.70;;;;;;10408917;28;19979;-69
2021/04/25 13:14:48;;;;;;;;;;;14.40;42.90;;;;;;10405621;28;19929;-69
2021/04/25 13:19:49;;;;;;;;;;;14.60;42.80;;;;;;10406764;28;19929;-68
2021/04/25 13:24:51;;;;;;;;;;;14.70;43.30;;;;;;10419403;28;19972;-68
2021/04/25 13:29:52;;;;;;;;;;;14.90;42.20;;;;;;10406460;28;20020;-68
2021/04/25 13:34:53;;;;;;;;;;;14.60;41.70;;;;;;10403589;28;19937;-68
2021/04/25 13:39:54;;;;;;;;;;;14.70;42.10;;;;;;10419876;28;19929;-68
2021/04/25 13:44:56;;;;;;;;;;;14.90;42.20;;;;;;10406901;28;19976;-69
2021/04/25 13:49:57;;;;;;;;;;;15.20;41.10;;;;;;10403984;28;20040;-71
2021/04/25 13:54:58;;;;;;;;;;;15.10;40.50;;;;;;10406890;28;20012;-68
2021/04/25 14:00:01;;;;;;;;;;;15.10;41.70;;;;;;10406568;28;19939;-68
2021/04/25 14:05:03;;;;;;;;;;;15.40;42.80;;;;;;10406696;28;19929;-68
2021/04/25 14:10:10;;;;;;;;;;;15.60;41.90;;;;;;10406747;28;19964;-68
2021/04/25 14:15:12;;;;;;;;;;;15.30;39.10;;;;;;10405857;28;19947;-68
2021/04/25 14:20:14;;;;;;;;;;;15.20;40.10;;;;;;10406234;28;20027;-68
2021/04/25 14:25:16;;;;;;;;;;;15.30;39.50;;;;;;10404612;28;19929;-68
2021/04/25 14:30:19;;;;;;;;;;;15.20;39.60;;;;;;10404300;28;19929;-68
2021/04/25 14:35:21;;;;;;;;;;;15.50;39.50;;;;;;10406270;28;19925;-68
2021/04/25 14:40:23;;;;;;;;;;;15.70;38.80;;;;;;10404233;28;20296;-68
2021/04/25 14:45:25;;;;;;;;;;;15.60;38.90;;;;;;10405359;28;20020;-68
2021/04/25 14:50:28;;;;;;;;;;;15.60;38.50;;;;;;10404419;28;19925;-68
2021/04/25 14:55:29;;;;;;;;;;;15.70;38.90;;;;;;10405445;28;19961;-68
2021/04/25 15:00:31;;;;;;;;;;;15.50;39.00;;;;;;10405024;28;19925;-68
2021/04/25 15:05:32;;;;;;;;;;;15.60;37.90;;;;;;10403675;28;20003;-68
2021/04/25 15:10:33;;;;;;;;;;;15.80;39.00;;;;;;10404417;28;20366;-68
2021/04/25 15:15:35;;;;;;;;;;;15.80;37.50;;;;;;10404334;28;20023;-68
2021/04/25 15:20:37;;;;;;;;;;;15.90;39.80;;;;;;10404927;28;19952;-68
2021/04/25 15:25:39;;;;;;;;;;;15.80;37.40;;;;;;10402544;28;19971;-67
2021/04/25 15:30:41;;;;;;;;;;;15.70;37.50;;;;;;10404361;28;20012;-67
2021/04/25 15:35:43;;;;;;;;;;;15.80;36.40;;;;;;10404041;28;20007;-68
2021/04/25 15:40:44;;;;;;;;;;;16.00;36.90;;;;;;10403360;28;19925;-68
2021/04/25 15:45:48;;;;;;;;;;;15.50;37.20;;;;;;10404322;28;20038;-68
2021/04/25 15:50:49;;;;;;;;;;;15.30;38.20;;;;;;10406912;28;19964;-68
2021/04/25 15:55:51;;;;;;;;;;;15.40;37.90;;;;;;10411196;28;20385;-67
2021/04/25 16:00:52;;;;;;;;;;;15.50;38.10;;;;;;10395627;28;19932;-68
2021/04/25 16:05:53;;;;;;;;;;;15.30;38.90;;;;;;10403602;28;20353;-67
2021/04/25 16:10:55;;;;;;;;;;;15.40;39.80;;;;;;10395096;28;20004;-68
2021/04/25 16:15:57;;;;;;;;;;;15.20;40.00;;;;;;10407163;28;19931;-67
2021/04/25 16:20:58;;;;;;;;;;;15.10;41.20;;;;;;10429515;28;20011;-67
2021/04/25 16:26:00;;;;;;;;;;;15.00;41.50;;;;;;10413522;28;19950;-67
2021/04/25 16:31:01;;;;;;;;;;;14.70;42.00;;;;;;10430666;28;20401;-67
2021/04/25 16:36:03;;;;;;;;;;;14.30;41.50;;;;;;10416534;28;20495;-68
2021/04/25 16:41:05;;;;;;;;;;;14.40;41.20;;;;;;10425558;28;20028;-68
2021/04/25 16:46:07;;;;;;;;;;;14.30;41.70;;;;;;10413975;28;20358;-68
2021/04/25 16:51:08;;;;;;;;;;;14.20;42.30;;;;;;10426520;28;20381;-68
2021/04/25 16:56:11;;;;;;;;;;;14.00;41.70;;;;;;10414931;28;20631;-68
2021/04/25 17:01:12;;;;;;;;;;;13.70;42.70;;;;;;10400807;28;19976;-68
2021/04/25 17:06:14;;;;;;;;;;;13.50;43.60;;;;;;10418352;28;19933;-67
2021/04/25 17:11:15;;;;;;;;;;;13.30;43.40;;;;;;10422892;28;20371;-67
2021/04/25 17:16:17;;;;;;;;;;;13.10;44.50;;;;;;10403711;28;19935;-67
2021/04/25 17:21:18;;;;;;;;;;;12.90;44.60;;;;;;10397216;28;20016;-67
2021/04/25 17:26:20;;;;;;;;;;;12.80;45.00;;;;;;10403995;28;20366;-67
2021/04/25 17:31:21;;;;;;;;;;;12.60;44.60;;;;;;10403616;28;20689;-67
2021/04/25 17:36:23;;;;;;;;;;;12.50;45.50;;;;;;10404796;28;20036;-68
2021/04/25 17:41:25;;;;;;;;;;;12.40;45.50;;;;;;10400568;28;19935;-67
2021/04/25 17:46:26;;;;;;;;;;;12.30;45.90;;;;;;10404183;28;20004;-67
2021/04/25 17:51:28;;;;;;;;;;;12.20;45.50;;;;;;10403006;28;20017;-67
2021/04/25 17:56:29;;;;;;;;;;;12.10;45.90;;;;;;10408534;28;19929;-67
2021/04/25 18:01:31;;;;;;;;;;;11.90;45.90;;;;;;10401470;28;20032;-68
2021/04/25 18:06:32;;;;;;;;;;;11.70;46.10;;;;;;10403731;28;20043;-67
2021/04/25 18:11:34;;;;;;;;;;;11.60;46.60;;;;;;10403985;28;19925;-68
2021/04/25 18:16:35;;;;;;;;;;;11.40;46.30;;;;;;10400761;28;20031;-67
2021/04/25 18:21:37;;;;;;;;;;;11.30;47.00;;;;;;10400463;28;19937;-67
2021/04/25 18:26:38;;;;;;;;;;;11.10;46.80;;;;;;10397333;28;19957;-67
2021/04/25 18:31:39;;;;;;;;;;;10.90;47.90;;;;;;10413736;28;19956;-68
2021/04/25 18:36:42;;;;;;;;;;;10.70;47.40;;;;;;10406279;28;19937;-67
2021/04/25 18:41:43;;;;;;;;;;;10.60;47.20;;;;;;10401499;28;19992;-68
2021/04/25 18:46:48;;;;;;;;;;;10.40;47.40;;;;;;10400983;28;20452;-67
2021/04/25 18:52:05;;;;;;;;;;;10.20;47.40;;;;;;10403292;28;19933;-68
2021/04/25 18:57:07;;;;;;;;;;;10.20;48.50;;;;;;10403321;28;19988;-68
2021/04/25 19:02:09;;;;;;;;;;;10.00;48.60;;;;;;10387172;28;20024;-68
2021/04/25 19:07:10;;;;;;;;;;;9.80;48.90;;;;;;10396869;28;20382;-68
2021/04/25 19:12:12;;;;;;;;;;;9.70;48.50;;;;;;10401592;28;19925;-67
2021/04/25 19:17:13;;;;;;;;;;;9.50;48.60;;;;;;10429078;28;19972;-67
2021/04/25 19:22:14;;;;;;;;;;;9.40;49.70;;;;;;10402705;28;19972;-67
2021/04/25 19:27:15;;;;;;;;;;;9.30;50.30;;;;;;10408989;28;19979;-67
2021/04/25 19:32:17;;;;;;;;;;;9.20;50.30;;;;;;10411906;28;19932;-67
2021/04/25 19:37:18;;;;;;;;;;;9.00;50.70;;;;;;10422047;28;19925;-67
2021/04/25 19:42:22;;;;;;;;;;;8.90;51.00;;;;;;10410411;28;20012;-67
2021/04/25 19:47:24;;;;;;;;;;;8.80;51.10;;;;;;10410089;28;19968;-68
2021/04/25 19:52:25;;;;;;;;;;;8.60;51.80;;;;;;10410718;28;19988;-68
2021/04/25 19:57:27;;;;;;;;;;;8.60;51.40;;;;;;10405924;28;19929;-67
2021/04/25 20:02:29;;;;;;;;;;;8.40;53.00;;;;;;10406954;28;20342;-67
2021/04/25 20:07:30;;;;;;;;;;;8.40;52.10;;;;;;10409323;28;20008;-67
2021/04/25 20:12:32;;;;;;;;;;;8.40;52.10;;;;;;10409772;28;20024;-67
2021/04/25 20:17:33;;;;;;;;;;;8.10;51.80;;;;;;10410549;28;19929;-67
2021/04/25 20:22:35;;;;;;;;;;;8.10;52.20;;;;;;10410122;28;19929;-68
2021/04/25 20:27:37;;;;;;;;;;;8.10;52.40;;;;;;10408911;28;19929;-67
2021/04/25 20:32:39;;;;;;;;;;;7.90;52.30;;;;;;10408684;28;20391;-67
2021/04/25 20:37:40;;;;;;;;;;;7.90;52.00;;;;;;10408586;28;19939;-67
2021/04/25 20:42:42;;;;;;;;;;;7.70;52.70;;;;;;10408939;28;19978;-67
2021/04/25 20:47:47;;;;;;;;;;;7.70;53.30;;;;;;10408861;28;20015;-66
2021/04/25 20:52:48;;;;;;;;;;;7.70;53.00;;;;;;10408603;28;20020;-66
2021/04/25 20:57:50;;;;;;;;;;;7.60;53.50;;;;;;10408680;28;20480;-66
2021/04/25 21:02:51;;;;;;;;;;;7.60;53.70;;;;;;10408020;28;19956;-67
2021/04/25 21:07:54;;;;;;;;;;;7.60;53.90;;;;;;10409493;28;19959;-67
2021/04/25 21:12:55;;;;;;;;;;;7.50;53.90;;;;;;10408549;28;19968;-66
2021/04/25 21:17:56;;;;;;;;;;;7.50;53.90;;;;;;10409099;28;19986;-66
2021/04/25 21:22:58;;;;;;;;;;;7.40;53.30;;;;;;10408182;28;20032;-66
2021/04/25 21:27:59;;;;;;;;;;;7.40;53.50;;;;;;10408328;28;20338;-66
2021/04/25 21:33:00;;;;;;;;;;;7.40;54.00;;;;;;10408349;28;20904;-66
2021/04/25 21:38:02;;;;;;;;;;;7.50;53.70;;;;;;10408246;28;19929;-66
2021/04/25 21:43:04;;;;;;;;;;;7.40;54.60;;;;;;10407369;28;19979;-66
2021/04/25 21:48:09;;;;;;;;;;;7.40;54.60;;;;;;10407456;28;19929;-66
2021/04/25 21:53:11;;;;;;;;;;;7.20;54.90;;;;;;10406837;28;19932;-66
2021/04/25 21:58:13;;;;;;;;;;;7.10;55.00;;;;;;10406591;28;19968;-66
2021/04/25 22:03:19;;;;;;;;;;;7.10;56.30;;;;;;10407318;28;19979;-66
2021/04/25 22:08:22;;;;;;;;;;;7.10;55.90;;;;;;10405490;28;20007;-67
2021/04/25 22:13:23;;;;;;;;;;;7.00;56.70;;;;;;10406496;28;20027;-66
2021/04/25 22:18:24;;;;;;;;;;;7.10;56.90;;;;;;10406314;28;19931;-66
2021/04/25 22:23:25;;;;;;;;;;;7.00;56.30;;;;;;10405758;28;20032;-66
2021/04/25 22:28:27;;;;;;;;;;;6.70;57.40;;;;;;10406186;28;20013;-66
2021/04/25 22:33:29;;;;;;;;;;;6.70;57.80;;;;;;10405842;28;20016;-66
2021/04/25 22:38:30;;;;;;;;;;;6.60;57.60;;;;;;10405527;28;19972;-66
2021/04/25 22:43:32;;;;;;;;;;;6.40;58.40;;;;;;10405198;28;20015;-67
2021/04/25 22:48:34;;;;;;;;;;;6.30;60.00;;;;;;10405072;28;19925;-66
2021/04/25 22:53:36;;;;;;;;;;;6.20;61.60;;;;;;10404972;28;19929;-67
2021/04/25 22:58:37;;;;;;;;;;;6.20;62.90;;;;;;10404086;28;20526;-67
2021/04/25 23:03:38;;;;;;;;;;;6.00;63.30;;;;;;10404039;28;20020;-67
2021/04/25 23:08:40;;;;;;;;;;;5.80;63.40;;;;;;10404694;28;19947;-67
2021/04/25 23:13:41;;;;;;;;;;;5.80;65.10;;;;;;10405142;28;20015;-67
2021/04/25 23:18:42;;;;;;;;;;;5.70;66.30;;;;;;10404301;28;19972;-67
2021/04/25 23:23:44;;;;;;;;;;;5.70;67.00;;;;;;10419900;28;19929;-67
2021/04/25 23:28:45;;;;;;;;;;;5.70;66.80;;;;;;10404751;28;19991;-67
2021/04/25 23:33:46;;;;;;;;;;;5.60;67.10;;;;;;10404206;28;20040;-67
2021/04/25 23:38:48;;;;;;;;;;;5.40;69.10;;;;;;10403946;28;19925;-67
2021/04/25 23:43:49;;;;;;;;;;;5.30;70.80;;;;;;10403832;28;19976;-67
2021/04/25 23:48:51;;;;;;;;;;;5.20;74.60;;;;;;10403080;28;19968;-67
2021/04/25 23:53:52;;;;;;;;;;;5.20;77.30;;;;;;10404495;28;20024;-67
2021/04/25 23:58:55;;;;;;;;;;;5.00;80.00;;;;;;10403428;28;19937;-66
